sensor_id;sensor_type;location;lat;lon;timestamp;pressure;altitude;pressure_sealevel;temperature;humidity
13968;BME280;39536;52.198;9.920;2022-09-24T00:00:30;100450.56;;;14.49;71.46
13968;BME280;39536;52.198;9.920;2022-09-24T00:02:57;100448.94;;;14.46;70.94
13968;BME280;39536;52.198;9.920;2022-09-24T00:05:23;100450.72;;;14.46;71.41
13968;BME280;39536;52.198;9.920;2022-09-24T00:07:50;100441.16;;;14.45;70.70
13968;BME280;39536;52.198;9.920;2022-09-24T00:10:16;100444.59;;;14.45;70.03
13968;BME280;39536;52.198;9.920;2022-09-24T00:12:43;100441.22;;;14.43;69.83
13968;BME280;39536;52.198;9.920;2022-09-24T00:15:11;100446.22;;;14.48;69.70
13968;BME280;39536;52.198;9.920;2022-09-24T00:17:38;100434.75;;;14.50;69.61
13968;BME280;39536;52.198;9.920;2022-09-24T00:20:05;100439.31;;;14.47;70.06
13968;BME280;39536;52.198;9.920;2022-09-24T00:22:32;100432.28;;;14.47;70.03
13968;BME280;39536;52.198;9.920;2022-09-24T00:24:58;100437.34;;;14.52;70.10
13968;BME280;39536;52.198;9.920;2022-09-24T00:27:42;100430.50;;;14.48;69.96
13968;BME280;39536;52.198;9.920;2022-09-24T00:30:11;100432.28;;;14.47;70.41
13968;BME280;39536;52.198;9.920;2022-09-24T00:32:38;100431.28;;;14.50;70.25
13968;BME280;39536;52.198;9.920;2022-09-24T00:35:04;100429.50;;;14.50;70.85
13968;BME280;39536;52.198;9.920;2022-09-24T00:37:31;100425.34;;;14.46;71.06
13968;BME280;39536;52.198;9.920;2022-09-24T00:39:58;100424.50;;;14.46;71.19
13968;BME280;39536;52.198;9.920;2022-09-24T00:42:25;100421.75;;;14.49;71.16
13968;BME280;39536;52.198;9.920;2022-09-24T00:44:54;100421.03;;;14.45;71.31
13968;BME280;39536;52.198;9.920;2022-09-24T00:47:27;100424.56;;;14.44;71.55
13968;BME280;39536;52.198;9.920;2022-09-24T00:50:04;100425.81;;;14.37;71.98
13968;BME280;39536;52.198;9.920;2022-09-24T00:52:33;100418.00;;;14.36;72.24
13968;BME280;39536;52.198;9.920;2022-09-24T00:55:00;100421.88;;;14.28;72.88
13968;BME280;39536;52.198;9.920;2022-09-24T00:57:26;100417.56;;;14.27;72.92
13968;BME280;39536;52.198;9.920;2022-09-24T00:59:53;100418.72;;;14.22;73.87
13968;BME280;39536;52.198;9.920;2022-09-24T01:02:20;100417.25;;;14.16;74.47
13968;BME280;39536;52.198;9.920;2022-09-24T01:04:49;100414.31;;;14.22;74.23
13968;BME280;39536;52.198;9.920;2022-09-24T01:07:16;100414.41;;;14.21;74.57
13968;BME280;39536;52.198;9.920;2022-09-24T01:09:43;100416.09;;;14.22;74.74
13968;BME280;39536;52.198;9.920;2022-09-24T01:12:14;100416.09;;;14.22;74.95
13968;BME280;39536;52.198;9.920;2022-09-24T01:14:55;100416.94;;;14.22;75.07
13968;BME280;39536;52.198;9.920;2022-09-24T01:17:27;100409.72;;;14.27;75.08
13968;BME280;39536;52.198;9.920;2022-09-24T01:20:36;100418.31;;;14.29;75.15
13968;BME280;39536;52.198;9.920;2022-09-24T01:23:22;100409.09;;;14.22;75.16
13968;BME280;39536;52.198;9.920;2022-09-24T01:26:05;100412.78;;;14.18;75.36
13968;BME280;39536;52.198;9.920;2022-09-24T01:28:49;100408.59;;;13.97;75.15
13968;BME280;39536;52.198;9.920;2022-09-24T01:31:25;100404.94;;;13.82;75.57
13968;BME280;39536;52.198;9.920;2022-09-24T01:33:56;100404.19;;;13.61;76.62
13968;BME280;39536;52.198;9.920;2022-09-24T01:36:26;100405.34;;;13.55;77.66
13968;BME280;39536;52.198;9.920;2022-09-24T01:38:55;100409.50;;;13.59;77.13
13968;BME280;39536;52.198;9.920;2022-09-24T01:41:23;100404.22;;;13.42;77.18
13968;BME280;39536;52.198;9.920;2022-09-24T01:43:50;100404.84;;;13.47;77.21
13968;BME280;39536;52.198;9.920;2022-09-24T01:46:17;100400.19;;;13.54;76.56
13968;BME280;39536;52.198;9.920;2022-09-24T01:48:46;100408.72;;;13.57;76.05
13968;BME280;39536;52.198;9.920;2022-09-24T01:51:17;100398.25;;;13.57;76.18
13968;BME280;39536;52.198;9.920;2022-09-24T01:53:49;100397.97;;;13.63;75.97
13968;BME280;39536;52.198;9.920;2022-09-24T01:56:21;100392.28;;;13.73;75.67
13968;BME280;39536;52.198;9.920;2022-09-24T01:58:52;100393.22;;;13.72;75.64
13968;BME280;39536;52.198;9.920;2022-09-24T02:01:23;100394.06;;;13.72;76.03
13968;BME280;39536;52.198;9.920;2022-09-24T02:03:55;100394.00;;;13.74;75.90
13968;BME280;39536;52.198;9.920;2022-09-24T02:06:27;100399.56;;;13.85;75.27
13968;BME280;39536;52.198;9.920;2022-09-24T02:08:56;100402.03;;;13.88;75.17
13968;BME280;39536;52.198;9.920;2022-09-24T02:11:25;100398.47;;;13.89;74.94
13968;BME280;39536;52.198;9.920;2022-09-24T02:13:55;100395.94;;;13.88;75.21
13968;BME280;39536;52.198;9.920;2022-09-24T02:16:26;100394.31;;;13.85;75.52
13968;BME280;39536;52.198;9.920;2022-09-24T02:18:59;100385.38;;;13.89;75.64
13968;BME280;39536;52.198;9.920;2022-09-24T02:21:28;100394.25;;;13.86;76.24
13968;BME280;39536;52.198;9.920;2022-09-24T02:23:59;100386.84;;;13.77;77.21
13968;BME280;39536;52.198;9.920;2022-09-24T02:26:28;100392.00;;;13.79;77.27
13968;BME280;39536;52.198;9.920;2022-09-24T02:28:55;100400.41;;;13.85;76.93
13968;BME280;39536;52.198;9.920;2022-09-24T02:31:24;100397.63;;;13.89;77.43
13968;BME280;39536;52.198;9.920;2022-09-24T02:33:56;100396.00;;;13.86;77.53
13968;BME280;39536;52.198;9.920;2022-09-24T02:36:42;100395.16;;;13.85;77.65
13968;BME280;39536;52.198;9.920;2022-09-24T02:39:08;100391.84;;;13.82;78.02
13968;BME280;39536;52.198;9.920;2022-09-24T02:41:35;100391.16;;;13.78;78.70
13968;BME280;39536;52.198;9.920;2022-09-24T02:44:02;100390.06;;;13.82;79.02
13968;BME280;39536;52.198;9.920;2022-09-24T02:46:29;100397.72;;;13.87;78.20
13968;BME280;39536;52.198;9.920;2022-09-24T02:48:57;100395.94;;;13.88;78.24
13968;BME280;39536;52.198;9.920;2022-09-24T02:51:24;100389.88;;;13.87;78.80
13968;BME280;39536;52.198;9.920;2022-09-24T02:53:51;100392.34;;;13.90;78.78
13968;BME280;39536;52.198;9.920;2022-09-24T02:56:18;100386.97;;;13.93;78.65
13968;BME280;39536;52.198;9.920;2022-09-24T02:58:44;100388.59;;;13.96;78.53
13968;BME280;39536;52.198;9.920;2022-09-24T03:01:11;100381.63;;;13.95;78.84
13968;BME280;39536;52.198;9.920;2022-09-24T03:03:37;100385.03;;;13.97;79.30
13968;BME280;39536;52.198;9.920;2022-09-24T03:06:06;100386.03;;;13.94;79.41
13968;BME280;39536;52.198;9.920;2022-09-24T03:08:32;100384.25;;;13.95;79.18
13968;BME280;39536;52.198;9.920;2022-09-24T03:11:00;100379.25;;;13.90;80.32
13968;BME280;39536;52.198;9.920;2022-09-24T03:13:26;100375.22;;;13.83;81.02
13968;BME280;39536;52.198;9.920;2022-09-24T03:15:53;100377.69;;;13.86;81.14
13968;BME280;39536;52.198;9.920;2022-09-24T03:18:19;100378.56;;;13.86;81.54
13968;BME280;39536;52.198;9.920;2022-09-24T03:20:53;100378.84;;;13.80;81.35
13968;BME280;39536;52.198;9.920;2022-09-24T03:23:22;100382.22;;;13.82;81.55
13968;BME280;39536;52.198;9.920;2022-09-24T03:25:48;100369.97;;;13.83;81.42
13968;BME280;39536;52.198;9.920;2022-09-24T03:28:15;100374.22;;;13.85;82.15
13968;BME280;39536;52.198;9.920;2022-09-24T03:30:42;100361.97;;;13.86;82.03
13968;BME280;39536;52.198;9.920;2022-09-24T03:33:25;100365.47;;;13.86;82.34
13968;BME280;39536;52.198;9.920;2022-09-24T03:35:54;100367.34;;;13.83;82.29
13968;BME280;39536;52.198;9.920;2022-09-24T03:38:22;100364.28;;;13.75;82.94
13968;BME280;39536;52.198;9.920;2022-09-24T03:40:49;100356.28;;;13.78;82.68
13968;BME280;39536;52.198;9.920;2022-09-24T03:43:15;100355.50;;;13.76;82.23
13968;BME280;39536;52.198;9.920;2022-09-24T03:45:42;100357.28;;;13.75;82.20
13968;BME280;39536;52.198;9.920;2022-09-24T03:48:08;100359.34;;;13.69;82.12
13968;BME280;39536;52.198;9.920;2022-09-24T03:50:35;100356.72;;;13.69;82.19
13968;BME280;39536;52.198;9.920;2022-09-24T03:53:02;100361.81;;;13.72;81.92
13968;BME280;39536;52.198;9.920;2022-09-24T03:55:30;100361.66;;;13.75;81.23
13968;BME280;39536;52.198;9.920;2022-09-24T03:57:57;100360.47;;;13.63;81.30
13968;BME280;39536;52.198;9.920;2022-09-24T04:00:23;100351.94;;;13.59;80.92
13968;BME280;39536;52.198;9.920;2022-09-24T04:02:51;100355.38;;;13.60;80.78
13968;BME280;39536;52.198;9.920;2022-09-24T04:05:18;100354.47;;;13.61;80.31
13968;BME280;39536;52.198;9.920;2022-09-24T04:07:45;100352.63;;;13.63;80.58
13968;BME280;39536;52.198;9.920;2022-09-24T04:10:11;100354.25;;;13.66;80.81
13968;BME280;39536;52.198;9.920;2022-09-24T04:12:39;100348.09;;;13.67;80.56
13968;BME280;39536;52.198;9.920;2022-09-24T04:15:08;100334.84;;;13.70;80.29
13968;BME280;39536;52.198;9.920;2022-09-24T04:17:35;100348.88;;;13.69;80.37
13968;BME280;39536;52.198;9.920;2022-09-24T04:20:01;100347.25;;;13.66;80.62
13968;BME280;39536;52.198;9.920;2022-09-24T04:22:28;100344.63;;;13.66;80.89
13968;BME280;39536;52.198;9.920;2022-09-24T04:24:55;100343.94;;;13.62;81.10
13968;BME280;39536;52.198;9.920;2022-09-24T04:27:21;100343.09;;;13.62;81.21
13968;BME280;39536;52.198;9.920;2022-09-24T04:29:49;100342.69;;;13.52;81.75
13968;BME280;39536;52.198;9.920;2022-09-24T04:32:18;100350.44;;;13.36;82.20
13968;BME280;39536;52.198;9.920;2022-09-24T04:34:46;100352.66;;;13.44;81.73
13968;BME280;39536;52.198;9.920;2022-09-24T04:37:12;100346.34;;;13.48;80.68
13968;BME280;39536;52.198;9.920;2022-09-24T04:39:39;100350.03;;;13.44;80.89
13968;BME280;39536;52.198;9.920;2022-09-24T04:42:06;100346.78;;;13.39;81.50
13968;BME280;39536;52.198;9.920;2022-09-24T04:44:33;100336.41;;;13.37;80.89
13968;BME280;39536;52.198;9.920;2022-09-24T04:47:01;100333.94;;;13.34;81.36
13968;BME280;39536;52.198;9.920;2022-09-24T04:49:28;100332.31;;;13.32;81.38
13968;BME280;39536;52.198;9.920;2022-09-24T04:51:54;100334.22;;;13.28;81.63
13968;BME280;39536;52.198;9.920;2022-09-24T04:54:22;100336.84;;;13.28;81.57
13968;BME280;39536;52.198;9.920;2022-09-24T04:56:49;100339.38;;;13.30;80.76
13968;BME280;39536;52.198;9.920;2022-09-24T04:59:15;100342.00;;;13.30;79.69
13968;BME280;39536;52.198;9.920;2022-09-24T05:01:42;100340.38;;;13.27;79.83
13968;BME280;39536;52.198;9.920;2022-09-24T05:04:11;100343.06;;;13.26;80.11
13968;BME280;39536;52.198;9.920;2022-09-24T05:06:37;100341.41;;;13.23;80.29
13968;BME280;39536;52.198;9.920;2022-09-24T05:09:04;100345.88;;;13.21;80.24
13968;BME280;39536;52.198;9.920;2022-09-24T05:11:31;100343.16;;;13.23;79.89
13968;BME280;39536;52.198;9.920;2022-09-24T05:13:57;100349.22;;;13.25;79.72
13968;BME280;39536;52.198;9.920;2022-09-24T05:16:24;100354.38;;;13.26;79.56
13968;BME280;39536;52.198;9.920;2022-09-24T05:18:51;100354.56;;;13.22;79.39
13968;BME280;39536;52.198;9.920;2022-09-24T05:21:18;100345.38;;;13.13;79.91
13968;BME280;39536;52.198;9.920;2022-09-24T05:23:45;100352.78;;;13.03;80.71
13968;BME280;39536;52.198;9.920;2022-09-24T05:26:12;100351.88;;;13.04;80.82
13968;BME280;39536;52.198;9.920;2022-09-24T05:28:56;100352.56;;;13.08;81.01
13968;BME280;39536;52.198;9.920;2022-09-24T05:31:23;100354.44;;;13.06;80.92
13968;BME280;39536;52.198;9.920;2022-09-24T05:33:49;100351.72;;;13.07;80.64
13968;BME280;39536;52.198;9.920;2022-09-24T05:36:16;100358.94;;;13.02;80.64
13968;BME280;39536;52.198;9.920;2022-09-24T05:38:45;100356.13;;;13.07;81.06
13968;BME280;39536;52.198;9.920;2022-09-24T05:41:11;100361.84;;;12.96;81.21
13968;BME280;39536;52.198;9.920;2022-09-24T05:43:38;100367.41;;;13.07;80.42
13968;BME280;39536;52.198;9.920;2022-09-24T05:46:05;100368.34;;;13.06;80.28
13968;BME280;39536;52.198;9.920;2022-09-24T05:48:32;100368.47;;;13.03;79.58
13968;BME280;39536;52.198;9.920;2022-09-24T05:50:59;100370.16;;;13.04;79.98
13968;BME280;39536;52.198;9.920;2022-09-24T05:53:26;100368.47;;;13.03;79.97
13968;BME280;39536;52.198;9.920;2022-09-24T05:55:54;100372.16;;;12.99;79.98
13968;BME280;39536;52.198;9.920;2022-09-24T05:58:21;100363.41;;;13.00;80.45
13968;BME280;39536;52.198;9.920;2022-09-24T06:00:49;100369.75;;;12.94;80.62
13968;BME280;39536;52.198;9.920;2022-09-24T06:03:16;100368.53;;;13.02;80.86
13968;BME280;39536;52.198;9.920;2022-09-24T06:05:44;100366.72;;;13.04;80.56
13968;BME280;39536;52.198;9.920;2022-09-24T06:08:13;100368.81;;;13.14;79.95
13968;BME280;39536;52.198;9.920;2022-09-24T06:10:40;100372.88;;;13.22;80.09
13968;BME280;39536;52.198;9.920;2022-09-24T06:13:08;100366.66;;;13.24;79.84
13968;BME280;39536;52.198;9.920;2022-09-24T06:15:36;100358.69;;;13.27;80.25
13968;BME280;39536;52.198;9.920;2022-09-24T06:18:03;100363.56;;;13.35;80.23
13968;BME280;39536;52.198;9.920;2022-09-24T06:20:31;100359.88;;;13.39;79.91
13968;BME280;39536;52.198;9.920;2022-09-24T06:22:57;100366.53;;;13.46;78.58
13968;BME280;39536;52.198;9.920;2022-09-24T06:25:24;100362.84;;;13.50;78.13
13968;BME280;39536;52.198;9.920;2022-09-24T06:27:54;100368.88;;;13.52;78.00
13968;BME280;39536;52.198;9.920;2022-09-24T06:30:26;100371.25;;;13.57;78.27
13968;BME280;39536;52.198;9.920;2022-09-24T06:32:53;100378.94;;;13.60;78.05
13968;BME280;39536;52.198;9.920;2022-09-24T06:35:20;100370.31;;;13.58;78.36
13968;BME280;39536;52.198;9.920;2022-09-24T06:37:47;100361.63;;;13.57;78.52
13968;BME280;39536;52.198;9.920;2022-09-24T06:40:14;100371.59;;;13.68;78.70
13968;BME280;39536;52.198;9.920;2022-09-24T06:42:41;100368.28;;;13.65;78.49
13968;BME280;39536;52.198;9.920;2022-09-24T06:45:09;100367.09;;;13.70;78.16
13968;BME280;39536;52.198;9.920;2022-09-24T06:47:37;100370.44;;;13.74;78.24
13968;BME280;39536;52.198;9.920;2022-09-24T06:50:05;100368.44;;;13.79;78.29
13968;BME280;39536;52.198;9.920;2022-09-24T06:52:32;100368.94;;;13.87;78.06
13968;BME280;39536;52.198;9.920;2022-09-24T06:54:58;100365.00;;;13.96;77.91
13968;BME280;39536;52.198;9.920;2022-09-24T06:57:25;100368.03;;;14.05;77.67
13968;BME280;39536;52.198;9.920;2022-09-24T06:59:52;100372.81;;;14.15;77.41
13968;BME280;39536;52.198;9.920;2022-09-24T07:02:19;100369.56;;;14.27;77.20
13968;BME280;39536;52.198;9.920;2022-09-24T07:04:47;100372.03;;;14.30;76.66
13968;BME280;39536;52.198;9.920;2022-09-24T07:07:13;100376.25;;;14.32;76.60
13968;BME280;39536;52.198;9.920;2022-09-24T07:09:57;100372.50;;;14.21;77.09
13968;BME280;39536;52.198;9.920;2022-09-24T07:12:24;100378.72;;;14.18;77.81
13968;BME280;39536;52.198;9.920;2022-09-24T07:14:51;100371.03;;;14.15;77.32
13968;BME280;39536;52.198;9.920;2022-09-24T07:17:18;100370.63;;;14.23;77.24
13968;BME280;39536;52.198;9.920;2022-09-24T07:19:44;100374.19;;;14.39;76.85
13968;BME280;39536;52.198;9.920;2022-09-24T07:22:12;100369.94;;;14.54;76.59
13968;BME280;39536;52.198;9.920;2022-09-24T07:24:39;100375.03;;;14.57;76.12
13968;BME280;39536;52.198;9.920;2022-09-24T07:27:06;100371.41;;;14.60;75.55
13968;BME280;39536;52.198;9.920;2022-09-24T07:29:33;100372.56;;;14.54;75.03
13968;BME280;39536;52.198;9.920;2022-09-24T07:32:00;100373.69;;;14.66;75.19
13968;BME280;39536;52.198;9.920;2022-09-24T07:34:27;100371.81;;;14.85;75.01
13968;BME280;39536;52.198;9.920;2022-09-24T07:36:55;100367.69;;;14.97;74.70
13968;BME280;39536;52.198;9.920;2022-09-24T07:39:23;100360.78;;;15.12;74.93
13968;BME280;39536;52.198;9.920;2022-09-24T07:41:50;100366.38;;;15.21;75.23
13968;BME280;39536;52.198;9.920;2022-09-24T07:44:17;100365.88;;;15.31;75.10
13968;BME280;39536;52.198;9.920;2022-09-24T07:46:46;100359.00;;;15.28;74.18
13968;BME280;39536;52.198;9.920;2022-09-24T07:49:13;100366.97;;;15.27;73.06
13968;BME280;39536;52.198;9.920;2022-09-24T07:51:39;100373.63;;;15.48;72.09
13968;BME280;39536;52.198;9.920;2022-09-24T07:54:06;100376.63;;;15.58;71.91
13968;BME280;39536;52.198;9.920;2022-09-24T07:56:36;100374.91;;;15.73;71.49
13968;BME280;39536;52.198;9.920;2022-09-24T07:59:03;100375.59;;;15.92;70.80
13968;BME280;39536;52.198;9.920;2022-09-24T08:01:31;100374.78;;;16.06;69.03
13968;BME280;39536;52.198;9.920;2022-09-24T08:03:58;100381.72;;;16.07;67.99
13968;BME280;39536;52.198;9.920;2022-09-24T08:06:25;100379.41;;;16.16;67.27
13968;BME280;39536;52.198;9.920;2022-09-24T08:08:52;100380.66;;;16.25;66.88
13968;BME280;39536;52.198;9.920;2022-09-24T08:11:20;100385.09;;;16.39;66.41
13968;BME280;39536;52.198;9.920;2022-09-24T08:13:48;100381.44;;;16.42;66.82
13968;BME280;39536;52.198;9.920;2022-09-24T08:16:15;100385.75;;;16.43;66.95
13968;BME280;39536;52.198;9.920;2022-09-24T08:18:42;100387.16;;;16.34;67.70
13968;BME280;39536;52.198;9.920;2022-09-24T08:21:10;100391.28;;;16.38;67.74
13968;BME280;39536;52.198;9.920;2022-09-24T08:23:40;100395.81;;;16.50;67.84
13968;BME280;39536;52.198;9.920;2022-09-24T08:26:08;100398.06;;;16.56;67.96
13968;BME280;39536;52.198;9.920;2022-09-24T08:28:34;100396.97;;;16.60;66.93
13968;BME280;39536;52.198;9.920;2022-09-24T08:31:04;100398.94;;;16.71;65.53
13968;BME280;39536;52.198;9.920;2022-09-24T08:33:34;100399.44;;;16.78;64.86
13968;BME280;39536;52.198;9.920;2022-09-24T08:36:03;100398.00;;;16.72;64.67
13968;BME280;39536;52.198;9.920;2022-09-24T08:38:30;100392.41;;;16.78;64.81
13968;BME280;39536;52.198;9.920;2022-09-24T08:41:03;100396.63;;;16.81;64.96
13968;BME280;39536;52.198;9.920;2022-09-24T08:43:39;100394.47;;;16.88;64.45
13968;BME280;39536;52.198;9.920;2022-09-24T08:46:14;100397.53;;;16.66;65.50
13968;BME280;39536;52.198;9.920;2022-09-24T08:49:00;100395.56;;;16.55;66.06
13968;BME280;39536;52.198;9.920;2022-09-24T08:51:35;100393.19;;;16.36;67.18
13968;BME280;39536;52.198;9.920;2022-09-24T08:54:05;100397.53;;;16.51;68.10
13968;BME280;39536;52.198;9.920;2022-09-24T08:56:36;100404.78;;;16.32;70.17
13968;BME280;39536;52.198;9.920;2022-09-24T08:59:12;100405.19;;;16.40;70.53
13968;BME280;39536;52.198;9.920;2022-09-24T09:01:47;100406.94;;;16.25;71.02
13968;BME280;39536;52.198;9.920;2022-09-24T09:04:24;100412.69;;;16.02;71.86
13968;BME280;39536;52.198;9.920;2022-09-24T09:06:59;100419.19;;;15.94;71.80
13968;BME280;39536;52.198;9.920;2022-09-24T09:09:40;100419.91;;;15.98;71.84
13968;BME280;39536;52.198;9.920;2022-09-24T09:12:13;100414.47;;;16.01;72.01
13968;BME280;39536;52.198;9.920;2022-09-24T09:14:45;100419.72;;;16.01;70.83
13968;BME280;39536;52.198;9.920;2022-09-24T09:17:23;100422.75;;;16.09;70.48
13968;BME280;39536;52.198;9.920;2022-09-24T09:19:56;100422.22;;;16.19;69.06
13968;BME280;39536;52.198;9.920;2022-09-24T09:22:25;100424.84;;;16.19;67.51
13968;BME280;39536;52.198;9.920;2022-09-24T09:24:56;100427.44;;;16.34;67.92
13968;BME280;39536;52.198;9.920;2022-09-24T09:27:25;100432.03;;;16.31;68.85
13968;BME280;39536;52.198;9.920;2022-09-24T09:29:56;100432.84;;;16.31;68.36
13968;BME280;39536;52.198;9.920;2022-09-24T09:32:34;100427.91;;;16.41;68.18
13968;BME280;39536;52.198;9.920;2022-09-24T09:35:10;100431.19;;;16.45;68.44
13968;BME280;39536;52.198;9.920;2022-09-24T09:37:43;100426.09;;;16.57;67.06
13968;BME280;39536;52.198;9.920;2022-09-24T09:40:25;100431.38;;;16.42;67.36
13968;BME280;39536;52.198;9.920;2022-09-24T09:42:58;100432.50;;;16.37;69.03
13968;BME280;39536;52.198;9.920;2022-09-24T09:45:30;100433.66;;;16.48;66.20
13968;BME280;39536;52.198;9.920;2022-09-24T09:48:01;100430.59;;;16.55;67.54
13968;BME280;39536;52.198;9.920;2022-09-24T09:50:31;100432.72;;;16.49;67.41
13968;BME280;39536;52.198;9.920;2022-09-24T09:53:00;100430.94;;;16.49;68.19
13968;BME280;39536;52.198;9.920;2022-09-24T09:55:30;100440.69;;;16.47;68.86
13968;BME280;39536;52.198;9.920;2022-09-24T09:58:08;100435.00;;;16.25;69.06
13968;BME280;39536;52.198;9.920;2022-09-24T10:00:36;100430.91;;;16.05;69.98
13968;BME280;39536;52.198;9.920;2022-09-24T10:03:04;100439.53;;;15.91;71.14
13968;BME280;39536;52.198;9.920;2022-09-24T10:05:31;100438.63;;;15.76;70.37
13968;BME280;39536;52.198;9.920;2022-09-24T10:07:58;100432.03;;;15.69;71.20
13968;BME280;39536;52.198;9.920;2022-09-24T10:10:26;100434.38;;;15.58;72.29
13968;BME280;39536;52.198;9.920;2022-09-24T10:12:53;100441.41;;;15.73;73.72
13968;BME280;39536;52.198;9.920;2022-09-24T10:15:31;100435.25;;;15.74;74.16
13968;BME280;39536;52.198;9.920;2022-09-24T10:17:59;100441.94;;;15.80;74.61
13968;BME280;39536;52.198;9.920;2022-09-24T10:20:29;100438.53;;;15.62;73.14
13968;BME280;39536;52.198;9.920;2022-09-24T10:23:00;100445.97;;;15.54;74.83
13968;BME280;39536;52.198;9.920;2022-09-24T10:25:29;100444.84;;;15.42;75.28
13968;BME280;39536;52.198;9.920;2022-09-24T10:27:58;100435.28;;;15.41;74.21
13968;BME280;39536;52.198;9.920;2022-09-24T10:30:50;100429.88;;;15.60;74.31
13968;BME280;39536;52.198;9.920;2022-09-24T10:33:17;100435.09;;;15.77;74.07
13968;BME280;39536;52.198;9.920;2022-09-24T10:35:45;100427.63;;;15.69;74.57
13968;BME280;39536;52.198;9.920;2022-09-24T10:38:17;100428.75;;;15.48;74.69
13968;BME280;39536;52.198;9.920;2022-09-24T10:40:45;100434.28;;;15.43;75.15
13968;BME280;39536;52.198;9.920;2022-09-24T10:43:16;100424.97;;;15.54;75.58
13968;BME280;39536;52.198;9.920;2022-09-24T10:48:42;100420.41;;;15.73;75.01
13968;BME280;39536;52.198;9.920;2022-09-24T10:51:23;100430.22;;;15.54;74.25
13968;BME280;39536;52.198;9.920;2022-09-24T10:54:06;100426.16;;;15.64;74.48
13968;BME280;39536;52.198;9.920;2022-09-24T10:56:42;100423.91;;;15.74;74.79
13968;BME280;39536;52.198;9.920;2022-09-24T10:59:22;100429.38;;;15.85;73.63
13968;BME280;39536;52.198;9.920;2022-09-24T11:02:01;100428.22;;;15.75;74.22
13968;BME280;39536;52.198;9.920;2022-09-24T11:04:43;100427.19;;;15.77;73.94
13968;BME280;39536;52.198;9.920;2022-09-24T11:07:59;100430.25;;;15.69;74.09
13968;BME280;39536;52.198;9.920;2022-09-24T11:10:46;100426.00;;;15.99;73.80
13968;BME280;39536;52.198;9.920;2022-09-24T11:13:24;100419.41;;;16.22;73.01
13968;BME280;39536;52.198;9.920;2022-09-24T11:18:54;100417.56;;;16.38;71.99
13968;BME280;39536;52.198;9.920;2022-09-24T11:21:31;100418.28;;;16.56;71.39
13968;BME280;39536;52.198;9.920;2022-09-24T11:24:21;100417.06;;;16.61;70.69
13968;BME280;39536;52.198;9.920;2022-09-24T11:26:59;100415.88;;;16.67;70.10
13968;BME280;39536;52.198;9.920;2022-09-24T11:29:48;100420.59;;;16.76;70.54
13968;BME280;39536;52.198;9.920;2022-09-24T11:32:27;100413.44;;;16.78;69.78
13968;BME280;39536;52.198;9.920;2022-09-24T11:35:16;100419.28;;;16.53;70.46
13968;BME280;39536;52.198;9.920;2022-09-24T11:37:54;100419.22;;;16.69;69.95
13968;BME280;39536;52.198;9.920;2022-09-24T11:40:47;100419.03;;;16.72;70.64
13968;BME280;39536;52.198;9.920;2022-09-24T11:43:38;100422.81;;;16.68;70.22
13968;BME280;39536;52.198;9.920;2022-09-24T11:46:29;100423.13;;;16.48;69.70
13968;BME280;39536;52.198;9.920;2022-09-24T11:49:21;100414.88;;;16.39;69.91
13968;BME280;39536;52.198;9.920;2022-09-24T11:51:54;100416.59;;;16.25;71.28
13968;BME280;39536;52.198;9.920;2022-09-24T11:54:25;100410.03;;;16.17;71.98
13968;BME280;39536;52.198;9.920;2022-09-24T11:57:01;100412.09;;;15.97;72.51
13968;BME280;39536;52.198;9.920;2022-09-24T11:59:37;100417.53;;;15.93;72.78
13968;BME280;39536;52.198;9.920;2022-09-24T12:02:13;100414.22;;;15.90;72.51
13968;BME280;39536;52.198;9.920;2022-09-24T12:04:49;100410.09;;;15.86;72.80
13968;BME280;39536;52.198;9.920;2022-09-24T12:07:23;100415.25;;;15.87;73.09
13968;BME280;39536;52.198;9.920;2022-09-24T12:09:57;100418.00;;;16.00;73.10
13968;BME280;39536;52.198;9.920;2022-09-24T12:12:30;100421.81;;;15.94;73.13
13968;BME280;39536;52.198;9.920;2022-09-24T12:15:00;100413.06;;;16.10;73.27
13968;BME280;39536;52.198;9.920;2022-09-24T12:17:32;100410.63;;;16.07;72.30
13968;BME280;39536;52.198;9.920;2022-09-24T12:20:03;100403.22;;;16.13;73.14
13968;BME280;39536;52.198;9.920;2022-09-24T12:22:33;100407.88;;;16.24;73.14
13968;BME280;39536;52.198;9.920;2022-09-24T12:25:03;100407.22;;;16.21;73.44
13968;BME280;39536;52.198;9.920;2022-09-24T12:27:35;100407.47;;;16.16;73.31
13968;BME280;39536;52.198;9.920;2022-09-24T12:30:11;100407.03;;;16.24;73.75
13968;BME280;39536;52.198;9.920;2022-09-24T12:33:05;100409.34;;;16.14;76.61
13968;BME280;39536;52.198;9.920;2022-09-24T12:35:49;100409.34;;;16.14;75.95
13968;BME280;39536;52.198;9.920;2022-09-24T12:38:21;100413.19;;;16.23;75.68
13968;BME280;39536;52.198;9.920;2022-09-24T12:41:15;100413.16;;;16.38;76.72
13968;BME280;39536;52.198;9.920;2022-09-24T12:43:49;100413.16;;;16.38;76.99
13968;BME280;39536;52.198;9.920;2022-09-24T12:46:19;100418.38;;;16.24;76.79
13968;BME280;39536;52.198;9.920;2022-09-24T12:48:58;100413.19;;;16.23;78.01
13968;BME280;39536;52.198;9.920;2022-09-24T12:51:35;100414.25;;;16.20;78.30
13968;BME280;39536;52.198;9.920;2022-09-24T12:54:14;100418.94;;;15.99;77.64
13968;BME280;39536;52.198;9.920;2022-09-24T12:56:46;100415.13;;;16.05;79.82
13968;BME280;39536;52.198;9.920;2022-09-24T12:59:25;100411.94;;;15.84;79.42
13968;BME280;39536;52.198;9.920;2022-09-24T13:01:52;100406.84;;;15.97;80.79
13968;BME280;39536;52.198;9.920;2022-09-24T13:04:25;100415.00;;;15.92;80.88
13968;BME280;39536;52.198;9.920;2022-09-24T13:06:53;100412.09;;;15.97;80.62
13968;BME280;39536;52.198;9.920;2022-09-24T13:09:30;100412.19;;;15.79;81.44
13968;BME280;39536;52.198;9.920;2022-09-24T13:12:20;100408.31;;;15.86;80.90
13968;BME280;39536;52.198;9.920;2022-09-24T13:14:53;100410.44;;;15.80;82.38